sensor_id;sensor_type;location;lat;lon;timestamp;pressure;altitude;pressure_sealevel;temperature;humidity
75646;BME280;64237;52.438;13.240;2023-07-22T00:02:16;100634.09;;;12.74;100.00
75646;BME280;64237;52.438;13.240;2023-07-22T00:04:42;100643.44;;;12.68;100.00
75646;BME280;64237;52.438;13.240;2023-07-22T00:07:07;100636.81;;;12.69;100.00
75646;BME280;64237;52.438;13.240;2023-07-22T00:09:33;100640.25;;;12.81;100.00
75646;BME280;64237;52.438;13.240;2023-07-22T00:12:01;100642.78;;;12.83;100.00
75646;BME280;64237;52.438;13.240;2023-07-22T00:14:27;100641.41;;;12.85;100.00
75646;BME280;64237;52.438;13.240;2023-07-22T00:16:52;100638.97;;;12.89;100.00
75646;BME280;64237;52.438;13.240;2023-07-22T00:19:17;100633.63;;;12.82;100.00
75646;BME280;64237;52.438;13.240;2023-07-22T00:21:43;100636.38;;;12.82;100.00
75646;BME280;64237;52.438;13.240;2023-07-22T00:24:08;100639.81;;;12.89;100.00
75646;BME280;64237;52.438;13.240;2023-07-22T00:26:35;100636.00;;;12.95;100.00
75646;BME280;64237;52.438;13.240;2023-07-22T00:29:01;100638.78;;;13.00;100.00
75646;BME280;64237;52.438;13.240;2023-07-22T00:31:27;100643.22;;;12.96;100.00
75646;BME280;64237;52.438;13.240;2023-07-22T00:33:53;100647.72;;;13.02;100.00
75646;BME280;64237;52.438;13.240;2023-07-22T00:36:18;100642.72;;;13.04;100.00
75646;BME280;64237;52.438;13.240;2023-07-22T00:38:43;100646.66;;;13.09;100.00
75646;BME280;64237;52.438;13.240;2023-07-22T00:41:10;100637.56;;;13.13;100.00
75646;BME280;64237;52.438;13.240;2023-07-22T00:43:36;100648.50;;;13.20;100.00
75646;BME280;64237;52.438;13.240;2023-07-22T00:46:01;100648.53;;;13.25;100.00
75646;BME280;64237;52.438;13.240;2023-07-22T00:48:27;100645.84;;;13.35;100.00
75646;BME280;64237;52.438;13.240;2023-07-22T00:50:53;100647.22;;;13.32;100.00
75646;BME280;64237;52.438;13.240;2023-07-22T00:53:18;100648.63;;;13.35;100.00
75646;BME280;64237;52.438;13.240;2023-07-22T00:55:44;100653.09;;;13.36;100.00
75646;BME280;64237;52.438;13.240;2023-07-22T00:58:10;100650.03;;;13.37;100.00
75646;BME280;64237;52.438;13.240;2023-07-22T01:00:36;100657.28;;;13.38;100.00
75646;BME280;64237;52.438;13.240;2023-07-22T01:03:02;100647.56;;;13.41;100.00
75646;BME280;64237;52.438;13.240;2023-07-22T01:05:28;100655.41;;;13.49;100.00
75646;BME280;64237;52.438;13.240;2023-07-22T01:07:55;100647.06;;;13.49;100.00
75646;BME280;64237;52.438;13.240;2023-07-22T01:10:21;100642.13;;;13.56;100.00
75646;BME280;64237;52.438;13.240;2023-07-22T01:12:47;100653.25;;;13.56;100.00
75646;BME280;64237;52.438;13.240;2023-07-22T01:15:13;100650.53;;;13.61;100.00
75646;BME280;64237;52.438;13.240;2023-07-22T01:17:39;100651.38;;;13.62;100.00
75646;BME280;64237;52.438;13.240;2023-07-22T01:20:05;100644.41;;;13.64;100.00
75646;BME280;64237;52.438;13.240;2023-07-22T01:22:31;100653.63;;;13.70;100.00
75646;BME280;64237;52.438;13.240;2023-07-22T01:24:57;100653.94;;;13.73;100.00
75646;BME280;64237;52.438;13.240;2023-07-22T01:27:23;100648.38;;;13.73;100.00
75646;BME280;64237;52.438;13.240;2023-07-22T01:29:52;100657.28;;;13.76;100.00
75646;BME280;64237;52.438;13.240;2023-07-22T01:32:18;100646.19;;;13.76;100.00
75646;BME280;64237;52.438;13.240;2023-07-22T01:34:45;100647.81;;;13.71;100.00
75646;BME280;64237;52.438;13.240;2023-07-22T01:37:10;100636.19;;;13.80;100.00
75646;BME280;64237;52.438;13.240;2023-07-22T01:39:36;100648.69;;;13.77;100.00
75646;BME280;64237;52.438;13.240;2023-07-22T01:42:02;100643.44;;;13.81;100.00
75646;BME280;64237;52.438;13.240;2023-07-22T01:44:27;100654.00;;;13.79;100.00
75646;BME280;64237;52.438;13.240;2023-07-22T01:46:53;100656.25;;;13.82;100.00
75646;BME280;64237;52.438;13.240;2023-07-22T01:49:19;100652.56;;;13.76;100.00
75646;BME280;64237;52.438;13.240;2023-07-22T01:51:44;100661.50;;;13.78;100.00
75646;BME280;64237;52.438;13.240;2023-07-22T01:54:11;100662.25;;;13.68;100.00
75646;BME280;64237;52.438;13.240;2023-07-22T01:56:38;100669.47;;;13.69;100.00
75646;BME280;64237;52.438;13.240;2023-07-22T01:59:04;100676.66;;;13.65;100.00
75646;BME280;64237;52.438;13.240;2023-07-22T02:01:29;100675.00;;;13.64;100.00
75646;BME280;64237;52.438;13.240;2023-07-22T02:03:54;100664.75;;;13.70;100.00
75646;BME280;64237;52.438;13.240;2023-07-22T02:06:20;100671.78;;;13.78;100.00
75646;BME280;64237;52.438;13.240;2023-07-22T02:08:46;100674.34;;;13.84;100.00
75646;BME280;64237;52.438;13.240;2023-07-22T02:11:11;100678.50;;;13.82;100.00
75646;BME280;64237;52.438;13.240;2023-07-22T02:13:37;100683.53;;;13.85;100.00
75646;BME280;64237;52.438;13.240;2023-07-22T02:16:03;100687.94;;;13.81;100.00
75646;BME280;64237;52.438;13.240;2023-07-22T02:18:29;100680.13;;;13.78;100.00
75646;BME280;64237;52.438;13.240;2023-07-22T02:20:55;100691.25;;;13.78;100.00
75646;BME280;64237;52.438;13.240;2023-07-22T02:23:21;100685.09;;;13.76;100.00
75646;BME280;64237;52.438;13.240;2023-07-22T02:25:53;100695.06;;;13.71;100.00
75646;BME280;64237;52.438;13.240;2023-07-22T02:28:19;100698.38;;;13.68;100.00
75646;BME280;64237;52.438;13.240;2023-07-22T02:30:50;100696.75;;;13.72;100.00
75646;BME280;64237;52.438;13.240;2023-07-22T02:33:18;100689.50;;;13.71;100.00
75646;BME280;64237;52.438;13.240;2023-07-22T02:35:43;100705.66;;;13.75;100.00
75646;BME280;64237;52.438;13.240;2023-07-22T02:38:09;100704.47;;;13.65;100.00
75646;BME280;64237;52.438;13.240;2023-07-22T02:40:35;100702.72;;;13.54;100.00
75646;BME280;64237;52.438;13.240;2023-07-22T02:43:01;100705.50;;;13.54;100.00
75646;BME280;64237;52.438;13.240;2023-07-22T02:45:26;100717.66;;;13.48;100.00
75646;BME280;64237;52.438;13.240;2023-07-22T02:47:52;100711.84;;;13.50;100.00
75646;BME280;64237;52.438;13.240;2023-07-22T02:50:17;100709.38;;;13.53;100.00
75646;BME280;64237;52.438;13.240;2023-07-22T02:52:43;100718.28;;;13.55;100.00
75646;BME280;64237;52.438;13.240;2023-07-22T02:55:10;100720.69;;;13.47;100.00
75646;BME280;64237;52.438;13.240;2023-07-22T02:57:37;100722.63;;;13.41;100.00
75646;BME280;64237;52.438;13.240;2023-07-22T03:00:04;100721.47;;;13.37;100.00
75646;BME280;64237;52.438;13.240;2023-07-22T03:02:36;100725.28;;;13.31;100.00
75646;BME280;64237;52.438;13.240;2023-07-22T03:05:03;100728.06;;;13.31;100.00
75646;BME280;64237;52.438;13.240;2023-07-22T03:07:31;100733.81;;;13.24;100.00
75646;BME280;64237;52.438;13.240;2023-07-22T03:09:56;100728.50;;;13.23;100.00
75646;BME280;64237;52.438;13.240;2023-07-22T03:12:22;100722.38;;;13.21;100.00
75646;BME280;64237;52.438;13.240;2023-07-22T03:14:47;100725.97;;;13.16;100.00
75646;BME280;64237;52.438;13.240;2023-07-22T03:17:14;100728.97;;;13.15;100.00
75646;BME280;64237;52.438;13.240;2023-07-22T03:19:41;100735.03;;;13.12;100.00
75646;BME280;64237;52.438;13.240;2023-07-22T03:22:08;100737.75;;;13.07;100.00
75646;BME280;64237;52.438;13.240;2023-07-22T03:24:35;100741.69;;;13.11;100.00
75646;BME280;64237;52.438;13.240;2023-07-22T03:27:00;100744.97;;;13.08;100.00
75646;BME280;64237;52.438;13.240;2023-07-22T03:29:28;100742.13;;;13.02;100.00
75646;BME280;64237;52.438;13.240;2023-07-22T03:31:54;100755.78;;;13.04;100.00
75646;BME280;64237;52.438;13.240;2023-07-22T03:34:19;100756.59;;;13.04;100.00
75646;BME280;64237;52.438;13.240;2023-07-22T03:36:45;100750.53;;;13.08;100.00
75646;BME280;64237;52.438;13.240;2023-07-22T03:39:11;100756.16;;;13.13;100.00
75646;BME280;64237;52.438;13.240;2023-07-22T03:41:36;100752.06;;;13.15;100.00
75646;BME280;64237;52.438;13.240;2023-07-22T03:44:02;100760.28;;;13.10;100.00
75646;BME280;64237;52.438;13.240;2023-07-22T03:46:27;100759.78;;;13.13;100.00
75646;BME280;64237;52.438;13.240;2023-07-22T03:48:53;100753.91;;;13.10;100.00
75646;BME280;64237;52.438;13.240;2023-07-22T03:51:19;100756.59;;;13.04;100.00
75646;BME280;64237;52.438;13.240;2023-07-22T03:53:44;100766.88;;;13.04;100.00
75646;BME280;64237;52.438;13.240;2023-07-22T03:56:10;100766.00;;;12.98;100.00
75646;BME280;64237;52.438;13.240;2023-07-22T03:58:35;100766.00;;;12.98;100.00
75646;BME280;64237;52.438;13.240;2023-07-22T04:01:00;100758.75;;;12.97;100.00
75646;BME280;64237;52.438;13.240;2023-07-22T04:03:26;100757.66;;;12.98;100.00
75646;BME280;64237;52.438;13.240;2023-07-22T04:05:55;100764.25;;;12.92;100.00
75646;BME280;64237;52.438;13.240;2023-07-22T04:08:20;100762.56;;;12.91;100.00
75646;BME280;64237;52.438;13.240;2023-07-22T04:10:53;100768.44;;;12.95;100.00
75646;BME280;64237;52.438;13.240;2023-07-22T04:13:19;100772.00;;;12.90;100.00
75646;BME280;64237;52.438;13.240;2023-07-22T04:15:44;100774.78;;;12.90;100.00
75646;BME280;64237;52.438;13.240;2023-07-22T04:18:10;100766.44;;;12.90;100.00
75646;BME280;64237;52.438;13.240;2023-07-22T04:20:35;100769.28;;;12.95;100.00
75646;BME280;64237;52.438;13.240;2023-07-22T04:23:00;100779.34;;;13.01;100.00
75646;BME280;64237;52.438;13.240;2023-07-22T04:25:26;100781.53;;;12.99;100.00
75646;BME280;64237;52.438;13.240;2023-07-22T04:27:51;100777.94;;;12.99;100.00
75646;BME280;64237;52.438;13.240;2023-07-22T04:30:16;100781.03;;;13.02;100.00
75646;BME280;64237;52.438;13.240;2023-07-22T04:32:47;100777.16;;;13.03;100.00
75646;BME280;64237;52.438;13.240;2023-07-22T04:35:13;100782.50;;;13.10;100.00
75646;BME280;64237;52.438;13.240;2023-07-22T04:37:39;100780.31;;;13.12;100.00
75646;BME280;64237;52.438;13.240;2023-07-22T04:40:05;100791.78;;;13.16;100.00
75646;BME280;64237;52.438;13.240;2023-07-22T04:42:32;100788.50;;;13.19;100.00
75646;BME280;64237;52.438;13.240;2023-07-22T04:44:57;100775.75;;;13.23;100.00
75646;BME280;64237;52.438;13.240;2023-07-22T04:47:22;100798.63;;;13.30;100.00
75646;BME280;64237;52.438;13.240;2023-07-22T04:49:48;100782.78;;;13.30;100.00
75646;BME280;64237;52.438;13.240;2023-07-22T04:52:13;100783.09;;;13.34;100.00
75646;BME280;64237;52.438;13.240;2023-07-22T04:54:38;100787.09;;;13.43;100.00
75646;BME280;64237;52.438;13.240;2023-07-22T04:57:04;100787.16;;;13.48;100.00
75646;BME280;64237;52.438;13.240;2023-07-22T04:59:30;100781.13;;;13.56;100.00
75646;BME280;64237;52.438;13.240;2023-07-22T05:01:56;100790.63;;;13.60;100.00
75646;BME280;64237;52.438;13.240;2023-07-22T05:04:21;100795.66;;;13.63;100.00
75646;BME280;64237;52.438;13.240;2023-07-22T05:06:47;100791.50;;;13.66;100.00
75646;BME280;64237;52.438;13.240;2023-07-22T05:09:12;100801.00;;;13.70;100.00
75646;BME280;64237;52.438;13.240;2023-07-22T05:11:37;100807.44;;;13.76;100.00
75646;BME280;64237;52.438;13.240;2023-07-22T05:14:03;100812.56;;;13.84;100.00
75646;BME280;64237;52.438;13.240;2023-07-22T05:16:28;100808.13;;;13.88;100.00
75646;BME280;64237;52.438;13.240;2023-07-22T05:18:53;100802.59;;;13.93;100.00
75646;BME280;64237;52.438;13.240;2023-07-22T05:21:19;100809.84;;;13.94;100.00
75646;BME280;64237;52.438;13.240;2023-07-22T05:23:44;100813.47;;;13.94;100.00
75646;BME280;64237;52.438;13.240;2023-07-22T05:26:10;100813.31;;;14.06;100.00
75646;BME280;64237;52.438;13.240;2023-07-22T05:28:35;100811.91;;;14.08;100.00
75646;BME280;64237;52.438;13.240;2023-07-22T05:31:00;100816.16;;;14.16;100.00
75646;BME280;64237;52.438;13.240;2023-07-22T05:33:26;100816.75;;;14.18;100.00
75646;BME280;64237;52.438;13.240;2023-07-22T05:35:51;100813.91;;;14.13;100.00
75646;BME280;64237;52.438;13.240;2023-07-22T05:38:17;100820.09;;;14.20;100.00
75646;BME280;64237;52.438;13.240;2023-07-22T05:40:42;100827.41;;;14.26;100.00
75646;BME280;64237;52.438;13.240;2023-07-22T05:43:08;100827.13;;;14.28;100.00
75646;BME280;64237;52.438;13.240;2023-07-22T05:45:33;100836.88;;;14.30;100.00
75646;BME280;64237;52.438;13.240;2023-07-22T05:47:59;100827.41;;;14.31;100.00
75646;BME280;64237;52.438;13.240;2023-07-22T05:50:24;100828.84;;;14.34;100.00
75646;BME280;64237;52.438;13.240;2023-07-22T05:52:50;100839.16;;;14.38;100.00
75646;BME280;64237;52.438;13.240;2023-07-22T05:55:16;100837.00;;;14.40;100.00
75646;BME280;64237;52.438;13.240;2023-07-22T05:57:41;100835.94;;;14.47;100.00
75646;BME280;64237;52.438;13.240;2023-07-22T06:00:07;100831.50;;;14.51;100.00
75646;BME280;64237;52.438;13.240;2023-07-22T06:02:34;100840.41;;;14.53;100.00
75646;BME280;64237;52.438;13.240;2023-07-22T06:04:59;100833.78;;;14.59;100.00
75646;BME280;64237;52.438;13.240;2023-07-22T06:07:24;100846.59;;;14.60;100.00
75646;BME280;64237;52.438;13.240;2023-07-22T06:09:50;100841.66;;;14.67;100.00
75646;BME280;64237;52.438;13.240;2023-07-22T06:12:16;100847.81;;;14.74;100.00
75646;BME280;64237;52.438;13.240;2023-07-22T06:14:41;100855.09;;;14.80;100.00
75646;BME280;64237;52.438;13.240;2023-07-22T06:17:06;100860.69;;;14.85;100.00
75646;BME280;64237;52.438;13.240;2023-07-22T06:19:32;100859.63;;;14.91;100.00
75646;BME280;64237;52.438;13.240;2023-07-22T06:21:58;100860.16;;;14.88;100.00
75646;BME280;64237;52.438;13.240;2023-07-22T06:24:24;100855.47;;;14.99;100.00
75646;BME280;64237;52.438;13.240;2023-07-22T06:26:49;100860.53;;;15.02;100.00
75646;BME280;64237;52.438;13.240;2023-07-22T06:29:14;100862.50;;;15.06;100.00
75646;BME280;64237;52.438;13.240;2023-07-22T06:31:40;100874.78;;;15.11;100.00
75646;BME280;64237;52.438;13.240;2023-07-22T06:34:05;100869.22;;;15.11;100.00
75646;BME280;64237;52.438;13.240;2023-07-22T06:36:30;100860.13;;;15.30;100.00
75646;BME280;64237;52.438;13.240;2023-07-22T06:38:56;100867.09;;;15.33;100.00
75646;BME280;64237;52.438;13.240;2023-07-22T06:41:23;100867.72;;;15.50;100.00
75646;BME280;64237;52.438;13.240;2023-07-22T06:43:49;100865.16;;;15.38;100.00
75646;BME280;64237;52.438;13.240;2023-07-22T06:46:16;100865.97;;;15.29;98.25
75646;BME280;64237;52.438;13.240;2023-07-22T06:48:41;100863.66;;;15.11;100.00
75646;BME280;64237;52.438;13.240;2023-07-22T06:51:06;100867.84;;;15.13;100.00
75646;BME280;64237;52.438;13.240;2023-07-22T06:53:32;100856.53;;;15.35;100.00
75646;BME280;64237;52.438;13.240;2023-07-22T06:55:58;100869.47;;;15.56;100.00
75646;BME280;64237;52.438;13.240;2023-07-22T06:58:23;100865.56;;;15.62;96.17
75646;BME280;64237;52.438;13.240;2023-07-22T07:00:53;100871.41;;;15.56;100.00
75646;BME280;64237;52.438;13.240;2023-07-22T07:03:18;100877.00;;;15.66;100.00
75646;BME280;64237;52.438;13.240;2023-07-22T07:05:44;100881.53;;;15.77;94.28
75646;BME280;64237;52.438;13.240;2023-07-22T07:08:16;100874.81;;;15.83;95.60
75646;BME280;64237;52.438;13.240;2023-07-22T07:10:41;100872.34;;;15.97;94.37
75646;BME280;64237;52.438;13.240;2023-07-22T07:13:06;100871.81;;;16.00;100.00
75646;BME280;64237;52.438;13.240;2023-07-22T07:15:32;100876.81;;;15.93;97.16
75646;BME280;64237;52.438;13.240;2023-07-22T07:17:57;100870.69;;;16.01;98.20
75646;BME280;64237;52.438;13.240;2023-07-22T07:20:23;100878.25;;;16.21;92.29
75646;BME280;64237;52.438;13.240;2023-07-22T07:22:48;100879.63;;;16.08;88.57
75646;BME280;64237;52.438;13.240;2023-07-22T07:25:13;100883.56;;;16.17;91.93
75646;BME280;64237;52.438;13.240;2023-07-22T07:27:40;100878.50;;;16.04;95.45
75646;BME280;64237;52.438;13.240;2023-07-22T07:30:06;100880.75;;;16.12;91.34
75646;BME280;64237;52.438;13.240;2023-07-22T07:32:33;100889.69;;;16.29;89.41
75646;BME280;64237;52.438;13.240;2023-07-22T07:34:58;100880.78;;;16.53;92.45
75646;BME280;64237;52.438;13.240;2023-07-22T07:37:24;100890.84;;;16.69;90.54
75646;BME280;64237;52.438;13.240;2023-07-22T07:39:49;100891.41;;;16.61;85.24
75646;BME280;64237;52.438;13.240;2023-07-22T07:42:14;100897.53;;;16.53;90.23
75646;BME280;64237;52.438;13.240;2023-07-22T07:44:40;100896.69;;;16.93;89.95
75646;BME280;64237;52.438;13.240;2023-07-22T07:47:05;100891.66;;;17.00;90.23
75646;BME280;64237;52.438;13.240;2023-07-22T07:49:30;100900.88;;;17.00;87.34
75646;BME280;64237;52.438;13.240;2023-07-22T07:51:56;100905.91;;;17.08;82.79
75646;BME280;64237;52.438;13.240;2023-07-22T07:54:21;100910.38;;;17.04;84.21
75646;BME280;64237;52.438;13.240;2023-07-22T07:56:46;100901.94;;;17.30;85.31
75646;BME280;64237;52.438;13.240;2023-07-22T07:59:12;100910.00;;;17.41;88.35
75646;BME280;64237;52.438;13.240;2023-07-22T08:01:37;100905.84;;;17.29;93.20
75646;BME280;64237;52.438;13.240;2023-07-22T08:04:09;100910.81;;;17.52;83.63
75646;BME280;64237;52.438;13.240;2023-07-22T08:06:35;100898.47;;;17.58;83.05
75646;BME280;64237;52.438;13.240;2023-07-22T08:09:03;100901.53;;;17.62;80.46
75646;BME280;64237;52.438;13.240;2023-07-22T08:11:30;100919.72;;;17.54;77.66
75646;BME280;64237;52.438;13.240;2023-07-22T08:13:55;100913.66;;;17.37;80.35
75646;BME280;64237;52.438;13.240;2023-07-22T08:16:21;100913.66;;;17.37;79.44
75646;BME280;64237;52.438;13.240;2023-07-22T08:18:46;100910.25;;;17.50;78.34
75646;BME280;64237;52.438;13.240;2023-07-22T08:21:12;100905.72;;;17.69;77.47
75646;BME280;64237;52.438;13.240;2023-07-22T08:23:38;100909.34;;;17.75;85.79
75646;BME280;64237;52.438;13.240;2023-07-22T08:26:04;100920.91;;;17.48;80.25
75646;BME280;64237;52.438;13.240;2023-07-22T08:28:31;100919.22;;;17.42;77.92
75646;BME280;64237;52.438;13.240;2023-07-22T08:30:57;100922.38;;;17.25;74.57
75646;BME280;64237;52.438;13.240;2023-07-22T08:33:23;100916.72;;;17.35;79.50
75646;BME280;64237;52.438;13.240;2023-07-22T08:35:51;100922.22;;;17.61;72.30
75646;BME280;64237;52.438;13.240;2023-07-22T08:38:16;100916.25;;;17.93;77.26
75646;BME280;64237;52.438;13.240;2023-07-22T08:40:43;100919.97;;;18.27;72.76
75646;BME280;64237;52.438;13.240;2023-07-22T08:43:10;100922.00;;;18.61;72.26
75646;BME280;64237;52.438;13.240;2023-07-22T08:45:37;100924.28;;;18.48;74.82
75646;BME280;64237;52.438;13.240;2023-07-22T08:50:37;100934.50;;;18.29;74.58
75646;BME280;64237;52.438;13.240;2023-07-22T08:53:06;100931.44;;;18.26;74.94
75646;BME280;64237;52.438;13.240;2023-07-22T08:55:32;100940.13;;;18.24;69.73
75646;BME280;64237;52.438;13.240;2023-07-22T08:57:58;100939.81;;;18.36;70.33
75646;BME280;64237;52.438;13.240;2023-07-22T09:00:24;100936.72;;;18.32;66.38
75646;BME280;64237;52.438;13.240;2023-07-22T09:02:50;100937.97;;;18.16;73.15
75646;BME280;64237;52.438;13.240;2023-07-22T09:05:16;100945.84;;;18.04;70.38
75646;BME280;64237;52.438;13.240;2023-07-22T09:07:42;100936.44;;;17.85;70.54
75646;BME280;64237;52.438;13.240;2023-07-22T09:10:09;100937.53;;;17.94;72.63
75646;BME280;64237;52.438;13.240;2023-07-22T09:12:35;100939.56;;;18.27;67.75
75646;BME280;64237;52.438;13.240;2023-07-22T09:15:12;100941.69;;;18.45;69.25
75646;BME280;64237;52.438;13.240;2023-07-22T09:17:41;100943.81;;;18.64;69.78
75646;BME280;64237;52.438;13.240;2023-07-22T09:20:06;100939.00;;;19.03;67.01
75646;BME280;64237;52.438;13.240;2023-07-22T09:22:32;100936.78;;;19.00;63.76
75646;BME280;64237;52.438;13.240;2023-07-22T09:25:24;100922.13;;;19.32;68.73
75646;BME280;64237;52.438;13.240;2023-07-22T09:27:55;100937.44;;;19.45;66.89
75646;BME280;64237;52.438;13.240;2023-07-22T09:30:38;100936.00;;;19.24;67.23
75646;BME280;64237;52.438;13.240;2023-07-22T09:33:06;100929.22;;;19.54;63.35
75646;BME280;64237;52.438;13.240;2023-07-22T09:35:46;100935.34;;;19.79;65.62
75646;BME280;64237;52.438;13.240;2023-07-22T09:38:12;100939.94;;;19.94;63.54
75646;BME280;64237;52.438;13.240;2023-07-22T09:40:40;100932.88;;;19.97;61.09
75646;BME280;64237;52.438;13.240;2023-07-22T09:43:08;100927.22;;;20.20;66.37
75646;BME280;64237;52.438;13.240;2023-07-22T09:45:34;100936.91;;;19.91;59.40
75646;BME280;64237;52.438;13.240;2023-07-22T09:48:00;100932.31;;;20.37;58.47
75646;BME280;64237;52.438;13.240;2023-07-22T09:50:26;100931.94;;;20.25;60.05
75646;BME280;64237;52.438;13.240;2023-07-22T09:52:56;100931.38;;;20.23;60.71
75646;BME280;64237;52.438;13.240;2023-07-22T09:55:27;100946.28;;;20.24;65.18
75646;BME280;64237;52.438;13.240;2023-07-22T09:58:02;100938.22;;;20.17;60.68
75646;BME280;64237;52.438;13.240;2023-07-22T10:00:30;100943.00;;;20.16;61.92
75646;BME280;64237;52.438;13.240;2023-07-22T10:02:59;100951.03;;;20.04;59.75
75646;BME280;64237;52.438;13.240;2023-07-22T10:05:26;100956.19;;;19.73;60.64
75646;BME280;64237;52.438;13.240;2023-07-22T10:07:57;100952.13;;;19.37;61.46
75646;BME280;64237;52.438;13.240;2023-07-22T10:10:26;100939.44;;;19.68;60.49
75646;BME280;64237;52.438;13.240;2023-07-22T10:12:53;100950.06;;;19.71;59.71
75646;BME280;64237;52.438;13.240;2023-07-22T10:15:19;100945.47;;;19.80;57.77
75646;BME280;64237;52.438;13.240;2023-07-22T10:17:45;100940.31;;;20.49;55.63
75646;BME280;64237;52.438;13.240;2023-07-22T10:20:13;100935.47;;;20.87;51.90
75646;BME280;64237;52.438;13.240;2023-07-22T10:22:42;100938.88;;;21.16;55.48
75646;BME280;64237;52.438;13.240;2023-07-22T10:25:10;100952.31;;;21.79;64.80
75646;BME280;64237;52.438;13.240;2023-07-22T10:27:36;100938.72;;;21.95;49.96
75646;BME280;64237;52.438;13.240;2023-07-22T10:30:05;100942.44;;;22.32;49.43
75646;BME280;64237;52.438;13.240;2023-07-22T10:32:35;100948.97;;;21.50;51.19
75646;BME280;64237;52.438;13.240;2023-07-22T10:35:01;100954.41;;;21.14;54.49
75646;BME280;64237;52.438;13.240;2023-07-22T10:37:32;100945.66;;;22.03;53.87
75646;BME280;64237;52.438;13.240;2023-07-22T10:42:57;100940.88;;;22.39;47.73
75646;BME280;64237;52.438;13.240;2023-07-22T10:45:50;100935.44;;;22.07;49.65
75646;BME280;64237;52.438;13.240;2023-07-22T10:48:17;100939.31;;;21.24;51.84
75646;BME280;64237;52.438;13.240;2023-07-22T10:50:46;100931.69;;;20.78;50.90
75646;BME280;64237;52.438;13.240;2023-07-22T11:04:12;100927.28;;;21.64;53.76
75646;BME280;64237;52.438;13.240;2023-07-22T11:12:16;100928.63;;;21.39;49.34
75646;BME280;64237;52.438;13.240;2023-07-22T11:14:52;100943.38;;;21.17;54.52
75646;BME280;64237;52.438;13.240;2023-07-22T11:17:29;100938.84;;;21.35;54.36
75646;BME280;64237;52.438;13.240;2023-07-22T11:19:55;100925.66;;;21.17;52.99
75646;BME280;64237;52.438;13.240;2023-07-22T11:22:21;100930.69;;;21.01;50.04
75646;BME280;64237;52.438;13.240;2023-07-22T11:24:47;100927.78;;;20.93;54.43
75646;BME280;64237;52.438;13.240;2023-07-22T11:27:12;100926.06;;;20.78;53.82
75646;BME280;64237;52.438;13.240;2023-07-22T11:29:37;100930.44;;;20.84;53.64
75646;BME280;64237;52.438;13.240;2023-07-22T11:32:04;100935.22;;;20.83;52.92
75646;BME280;64237;52.438;13.240;2023-07-22T11:34:29;100935.50;;;21.47;51.92
75646;BME280;64237;52.438;13.240;2023-07-22T11:36:56;100929.97;;;21.97;53.82
75646;BME280;64237;52.438;13.240;2023-07-22T11:39:23;100919.22;;;22.48;48.71
75646;BME280;64237;52.438;13.240;2023-07-22T11:41:49;100925.78;;;22.80;48.42
75646;BME280;64237;52.438;13.240;2023-07-22T11:44:21;100929.25;;;22.99;45.96
75646;BME280;64237;52.438;13.240;2023-07-22T11:49:12;100919.75;;;22.95;46.91
75646;BME280;64237;52.438;13.240;2023-07-22T11:51:42;100916.19;;;22.81;46.35
75646;BME280;64237;52.438;13.240;2023-07-22T11:54:07;100913.97;;;23.00;47.22
75646;BME280;64237;52.438;13.240;2023-07-22T11:56:33;100921.53;;;22.69;49.59
75646;BME280;64237;52.438;13.240;2023-07-22T11:58:58;100911.41;;;22.45;47.70
75646;BME280;64237;52.438;13.240;2023-07-22T12:01:24;100922.53;;;22.28;48.38
75646;BME280;64237;52.438;13.240;2023-07-22T12:03:57;100918.50;;;22.07;48.11
75646;BME280;64237;52.438;13.240;2023-07-22T12:06:27;100927.19;;;21.83;51.24
75646;BME280;64237;52.438;13.240;2023-07-22T12:08:52;100929.44;;;21.67;51.03
75646;BME280;64237;52.438;13.240;2023-07-22T12:11:22;100926.75;;;22.39;55.28
75646;BME280;64237;52.438;13.240;2023-07-22T12:13:49;100923.03;;;22.30;48.79
75646;BME280;64237;52.438;13.240;2023-07-22T12:16:29;100928.56;;;22.94;48.83
75646;BME280;64237;52.438;13.240;2023-07-22T12:18:54;100927.56;;;22.98;49.45
75646;BME280;64237;52.438;13.240;2023-07-22T12:21:20;100919.34;;;23.41;46.49
75646;BME280;64237;52.438;13.240;2023-07-22T12:23:46;100910.19;;;23.36;48.01
75646;BME280;64237;52.438;13.240;2023-07-22T12:26:11;100916.16;;;23.03;48.75
75646;BME280;64237;52.438;13.240;2023-07-22T12:28:37;100906.81;;;22.72;48.56
75646;BME280;64237;52.438;13.240;2023-07-22T12:31:03;100911.31;;;22.37;49.10
75646;BME280;64237;52.438;13.240;2023-07-22T12:33:28;100909.97;;;22.34;50.84
75646;BME280;64237;52.438;13.240;2023-07-22T12:35:56;100902.44;;;22.66;51.26
75646;BME280;64237;52.438;13.240;2023-07-22T12:38:22;100903.31;;;22.52;46.87
75646;BME280;64237;52.438;13.240;2023-07-22T12:40:47;100904.50;;;22.51;52.39
75646;BME280;64237;52.438;13.240;2023-07-22T12:43:13;100903.78;;;22.46;49.73
75646;BME280;64237;52.438;13.240;2023-07-22T12:45:38;100899.47;;;22.26;50.40
75646;BME280;64237;52.438;13.240;2023-07-22T12:48:03;100895.31;;;22.10;48.29
75646;BME280;64237;52.438;13.240;2023-07-22T12:50:30;100901.59;;;22.07;50.40
75646;BME280;64237;52.438;13.240;2023-07-22T12:52:57;100911.72;;;21.80;48.21
75646;BME280;64237;52.438;13.240;2023-07-22T12:55:22;100900.75;;;21.65;50.43
75646;BME280;64237;52.438;13.240;2023-07-22T12:57:48;100901.50;;;21.84;50.32